This is the latest recevied weather packets stored in our database for station/object KJ4OVR-WX. If no packets are shown the sender has not sent any weather packets the latest 10 day(s).
| Time | Temp. | Humidity | Pressure | Rain* | Wind** | Luminosity | Snow |
|---|---|---|---|---|---|---|---|
| 1777771564 | 12.78° C | 57% | 1016.8 hPa | 0 mm | - | - | - |
| 1777770065 | 13.89° C | 54% | 1016.1 hPa | 0 mm | - | - | - |
| 1777768864 | 15° C | 51% | 1016 hPa | 0 mm | - | - | - |
| 1777768566 | 15° C | 51% | 1016 hPa | 0 mm | - | - | - |
| 1777767365 | 16.11° C | 47% | 1015.2 hPa | 0 mm | - | - | - |
| 1777766783 | 16.11° C | 47% | 1015.1 hPa | 0 mm | - | - | - |
| 1777766525 | 16.67° C | 46% | 1015 hPa | 0 mm | - | - | - |
| 1777766166 | 16.67° C | 46% | 1014.9 hPa | 0 mm | - | - | - |
| 1777765865 | 16.67° C | 45% | 1014.8 hPa | 0 mm | - | - | - |
| 1777764066 | 17.78° C | 45% | 1014.4 hPa | 0 mm | - | - | - |
| 1777763466 | 17.78° C | 45% | 1014.5 hPa | 0 mm | - | - | - |
| 1777761366 | 20° C | 41% | 1014.1 hPa | 0 mm | - | - | - |
| 1777761068 | 20° C | 40% | 1014.1 hPa | 0 mm | - | - | - |
| 1777760766 | 20.56° C | 40% | 1014 hPa | 0 mm | - | - | - |
| 1777760466 | 20.56° C | 41% | 1014.1 hPa | 0 mm | - | - | - |
| 1777760166 | 20.56° C | 41% | 1014.1 hPa | 0 mm | - | - | - |
| 1777759267 | 20° C | 40% | 1014 hPa | 0 mm | - | - | - |
| 1777758974 | 20° C | 40% | 1014 hPa | 0 mm | - | - | - |
| 1777758667 | 20° C | 40% | 1013.9 hPa | 0 mm | - | - | - |
| 1777758067 | 20° C | 40% | 1013.8 hPa | 0 mm | - | - | - |
| 1777757767 | 20° C | 42% | 1013.9 hPa | 0 mm | - | - | - |
| 1777757467 | 19.44° C | 42% | 1013.9 hPa | 0 mm | - | - | - |
| 1777757187 | 19.44° C | 41% | 1013.9 hPa | 0 mm | - | - | - |
| 1777756868 | 19.44° C | 40% | 1014.1 hPa | 0 mm | - | - | - |
| 1777756567 | 20° C | 40% | 1014 hPa | 0 mm | - | - | - |
* Rain latest hour (hover to see other rain measurements)
** Current wind speed in m/s (hover to see current wind gust speed)